Observation data for Olton on 11/13/2019      Previous  Date       Current Mesonet Observations  Soil Data  Daily Summary Page  Observations in Plain Language
KONS 130600Z 21010KT M02/M10 A3017 RMK A01 T10231100  RH  057%=      5-min Rain = 0
KONS 130605Z 21009KT M02/M10 A3017 RMK A01 T10241099  RH  057%=      5-min Rain = 0
KONS 130610Z 21010KT M02/M10 A3016 RMK A01 T10241099  RH  057%=      5-min Rain = 0
KONS 130615Z 21010KT M02/M10 A3016 RMK A01 T10231099  RH  057%=      5-min Rain = 0
KONS 130620Z 21009KT M02/M10 A3016 RMK A01 T10241099  RH  057%=      5-min Rain = 0
KONS 130625Z 21009KT M02/M10 A3016 RMK A01 T10241099  RH  057%=      5-min Rain = 0
KONS 130630Z 20009KT M02/M10 A3015 RMK A01 T10241099  RH  057%=      5-min Rain = 0
KONS 130635Z 20010KT M02/M10 A3015 RMK A01 T10241099  RH  057%=      5-min Rain = 0
KONS 130640Z 21011KT M02/M10 A3015 RMK A01 T10231099  RH  057%=      5-min Rain = 0
KONS 130645Z 21011KT M02/M10 A3014 RMK A01 T10221100  RH  056%=      5-min Rain = 0
KONS 130650Z 21010KT M02/M10 A3014 RMK A01 T10231100  RH  056%=      5-min Rain = 0
KONS 130655Z 21009KT M02/M10 A3014 RMK A01 T10241100  RH  056%=      5-min Rain = 0
KONS 130700Z 21010KT M03/M10 A3014 RMK A01 T10251100  RH  057%=      5-min Rain = 0
KONS 130705Z 20011KT M03/M10 A3013 RMK A01 T10251100  RH  057%=      5-min Rain = 0
KONS 130710Z 21010KT M03/M10 A3013 RMK A01 T10251100  RH  057%=      5-min Rain = 0
KONS 130715Z 21010KT M03/M10 A3013 RMK A01 T10261101  RH  057%=      5-min Rain = 0
KONS 130720Z 21010KT M03/M10 A3013 RMK A01 T10261101  RH  057%=      5-min Rain = 0
KONS 130725Z 21009KT M03/M10 A3013 RMK A01 T10261101  RH  057%=      5-min Rain = 0
KONS 130730Z 21009KT M03/M10 A3013 RMK A01 T10261101  RH  057%=      5-min Rain = 0
KONS 130735Z 21011KT M03/M10 A3012 RMK A01 T10261101  RH  057%=      5-min Rain = 0
KONS 130740Z 21011KT M03/M10 A3012 RMK A01 T10261102  RH  057%=      5-min Rain = 0
KONS 130745Z 21011KT M03/M10 A3012 RMK A01 T10251102  RH  056%=      5-min Rain = 0
KONS 130750Z 22011KT M03/M10 A3012 RMK A01 T10251103  RH  056%=      5-min Rain = 0
KONS 130755Z 22011KT M03/M10 A3012 RMK A01 T10251102  RH  056%=      5-min Rain = 0
KONS 130800Z 22010KT M03/M10 A3012 RMK A01 T10261102  RH  057%=      5-min Rain = 0
KONS 130805Z 21010KT M03/M10 A3011 RMK A01 T10271101  RH  058%=      5-min Rain = 0
KONS 130810Z 21009KT M03/M10 A3011 RMK A01 T10281101  RH  058%=      5-min Rain = 0
KONS 130815Z 21009KT M03/M10 A3011 RMK A01 T10291101  RH  058%=      5-min Rain = 0
KONS 130820Z 21009KT M03/M10 A3011 RMK A01 T10291101  RH  058%=      5-min Rain = 0
KONS 130825Z 21009KT M03/M10 A3011 RMK A01 T10301101  RH  059%=      5-min Rain = 0
KONS 130830Z 21010KT M03/M10 A3011 RMK A01 T10291101  RH  059%=      5-min Rain = 0
KONS 130835Z 20011KT M03/M10 A301 RMK A01 T10291100  RH  059%=      5-min Rain = 0
KONS 130840Z 20011KT M03/M10 A301 RMK A01 T10301099  RH  060%=      5-min Rain = 0
KONS 130845Z 20011KT M03/M10 A301 RMK A01 T10301098  RH  060%=      5-min Rain = 0
KONS 130850Z 20012KT M03/M10 A301 RMK A01 T10301098  RH  060%=      5-min Rain = 0
KONS 130855Z 20012KT M03/M10 A301 RMK A01 T10301098  RH  061%=      5-min Rain = 0
KONS 130900Z 20011KT M03/M10 A3009 RMK A01 T10311097  RH  061%=      5-min Rain = 0
KONS 130905Z 20012KT M03/M10 A3009 RMK A01 T10311097  RH  061%=      5-min Rain = 0
KONS 130910Z 20012KT M03/M10 A3008 RMK A01 T10311096  RH  062%=      5-min Rain = 0
KONS 130915Z 20012KT M03/M10 A3008 RMK A01 T10311096  RH  062%=      5-min Rain = 0
KONS 130920Z 20012KT M03/M10 A3007 RMK A01 T10311096  RH  062%=      5-min Rain = 0
KONS 130925Z 21011KT M03/M10 A3007 RMK A01 T10311095  RH  062%=      5-min Rain = 0
KONS 130930Z 21010KT M03/M10 A3007 RMK A01 T10301095  RH  062%=      5-min Rain = 0
KONS 130935Z 22012KT M03/M10 A3006 RMK A01 T10291095  RH  061%=      5-min Rain = 0
KONS 130940Z 21012KT M03/M09 A3006 RMK A01 T10271094  RH  061%=      5-min Rain = 0
KONS 130945Z 21012KT M03/M09 A3005 RMK A01 T10271093  RH  061%=      5-min Rain = 0
KONS 130950Z 21012KT M03/M09 A3005 RMK A01 T10271093  RH  061%=      5-min Rain = 0
KONS 130955Z 22012KT M03/M09 A3005 RMK A01 T10271092  RH  061%=      5-min Rain = 0
KONS 131000Z 22013KT M03/M09 A3005 RMK A01 T10251091  RH  061%=      5-min Rain = 0
KONS 131005Z 21013KT M02/M09 A3005 RMK A01 T10241090  RH  061%=      5-min Rain = 0
KONS 131010Z 21013KT M02/M09 A3005 RMK A01 T10231090  RH  061%=      5-min Rain = 0
KONS 131015Z 21013KT M02/M09 A3004 RMK A01 T10231090  RH  061%=      5-min Rain = 0
KONS 131020Z 21013KT M02/M09 A3004 RMK A01 T10231089  RH  061%=      5-min Rain = 0
KONS 131025Z 21013KT M02/M09 A3004 RMK A01 T10231089  RH  061%=      5-min Rain = 0
KONS 131030Z 20013KT M02/M09 A3004 RMK A01 T10241088  RH  062%=      5-min Rain = 0
KONS 131035Z 20013KT M03/M09 A3004 RMK A01 T10261088  RH  063%=      5-min Rain = 0
KONS 131040Z 20012KT M03/M09 A3004 RMK A01 T10271088  RH  064%=      5-min Rain = 0
KONS 131045Z 20012KT M03/M09 A3004 RMK A01 T10281087  RH  064%=      5-min Rain = 0
KONS 131050Z 20011KT M03/M09 A3004 RMK A01 T10291087  RH  065%=      5-min Rain = 0
KONS 131055Z 20012KT M03/M09 A3003 RMK A01 T10291087  RH  065%=      5-min Rain = 0
KONS 131100Z 20012KT M03/M09 A3003 RMK A01 T10291086  RH  066%=      5-min Rain = 0
KONS 131105Z 20012KT M03/M09 A3003 RMK A01 T10281085  RH  066%=      5-min Rain = 0
KONS 131110Z 21012KT M03/M08 A3003 RMK A01 T10281084  RH  066%=      5-min Rain = 0
KONS 131115Z 20013KT M03/M08 A3003 RMK A01 T10271083  RH  066%=      5-min Rain = 0
KONS 131120Z 21014KT M03/M08 A3002 RMK A01 T10261082  RH  066%=      5-min Rain = 0
KONS 131125Z 21014KT M03/M08 A3002 RMK A01 T10261082  RH  066%=      5-min Rain = 0
KONS 131130Z 21014KT M03/M08 A3002 RMK A01 T10261082  RH  066%=      5-min Rain = 0
KONS 131135Z 21015KT M03/M08 A3002 RMK A01 T10251081  RH  066%=      5-min Rain = 0
KONS 131140Z 21015KT M03/M08 A3001 RMK A01 T10251081  RH  066%=      5-min Rain = 0
KONS 131145Z 21014KT M03/M08 A3002 RMK A01 T10251081  RH  066%=      5-min Rain = 0
KONS 131150Z 21013KT M03/M08 A3001 RMK A01 T10261081  RH  067%=      5-min Rain = 0
KONS 131155Z 21014KT M03/M08 A3002 RMK A01 T10251081  RH  066%=      5-min Rain = 0
KONS 131200Z 21014KT M03/M08 A3001 RMK A01 T10261081  RH  066%=      5-min Rain = 0
KONS 131205Z 21013KT M03/M08 A3001 RMK A01 T10261081  RH  067%=      5-min Rain = 0
KONS 131210Z 22012G17KT M03/M08 A3002 RMK A01 T10261081  RH  067%=      5-min Rain = 0
KONS 131215Z 22013KT M03/M08 A3001 RMK A01 T10261081  RH  067%=      5-min Rain = 0
KONS 131220Z 21015G20KT M03/M08 A3001 RMK A01 T10261081  RH  067%=      5-min Rain = 0
KONS 131225Z 21015KT M03/M08 A3001 RMK A01 T10261081  RH  067%=      5-min Rain = 0
KONS 131230Z 21014KT M03/M08 A3001 RMK A01 T10271081  RH  067%=      5-min Rain = 0
KONS 131235Z 21014KT M03/M08 A30 RMK A01 T10261081  RH  067%=      5-min Rain = 0
KONS 131240Z 22013KT M03/M08 A3001 RMK A01 T10271080  RH  067%=      5-min Rain = 0
KONS 131245Z 22013KT M03/M08 A30 RMK A01 T10261079  RH  067%=      5-min Rain = 0
KONS 131250Z 22014KT M03/M08 A30 RMK A01 T10251079  RH  067%=      5-min Rain = 0
KONS 131255Z 22013KT M03/M08 A30 RMK A01 T10251078  RH  067%=      5-min Rain = 0
KONS 131300Z 22012KT M03/M08 A30 RMK A01 T10261078  RH  068%=      5-min Rain = 0
KONS 131305Z 22010KT M03/M08 A30 RMK A01 T10281078  RH  069%=      5-min Rain = 0
KONS 131310Z 22011KT M03/M08 A30 RMK A01 T10291078  RH  070%=      5-min Rain = 0
KONS 131315Z 22010KT M03/M08 A3001 RMK A01 T10291078  RH  070%=      5-min Rain = 0
KONS 131320Z 22010KT M03/M08 A3001 RMK A01 T10301078  RH  070%=      5-min Rain = 0
KONS 131325Z 22010KT M03/M08 A30 RMK A01 T10311077  RH  071%=      5-min Rain = 0
KONS 131330Z 22010KT M03/M08 A30 RMK A01 T10321077  RH  072%=      5-min Rain = 0
KONS 131335Z 23010KT M03/M08 A30 RMK A01 T10321076  RH  072%=      5-min Rain = 0
KONS 131340Z 23011KT M03/M08 A30 RMK A01 T10301075  RH  072%=      5-min Rain = 0
KONS 131345Z 23011KT M03/M07 A30 RMK A01 T10281074  RH  072%=      5-min Rain = 0
KONS 131350Z 23011KT M03/M07 A30 RMK A01 T10281074  RH  071%=      5-min Rain = 0
KONS 131355Z 22010KT M03/M07 A30 RMK A01 T10271073  RH  072%=      5-min Rain = 0
KONS 131400Z 22010KT M03/M07 A30 RMK A01 T10261072  RH  071%=      5-min Rain = 0
KONS 131405Z 23009KT M02/M07 A30 RMK A01 T10241071  RH  071%=      5-min Rain = 0
KONS 131410Z 23010KT M02/M07 A30 RMK A01 T10231070  RH  071%=      5-min Rain = 0
KONS 131415Z 22011KT M02/M07 A30 RMK A01 T10211070  RH  070%=      5-min Rain = 0
KONS 131420Z 22010KT M02/M07 A30 RMK A01 T10171067  RH  069%=      5-min Rain = 0
KONS 131425Z 22012KT M01/M07 A30 RMK A01 T10111065  RH  067%=      5-min Rain = 0
KONS 131430Z 23013KT M01/M07 A30 RMK A01 T10071065  RH  066%=      5-min Rain = 0
KONS 131435Z 23013KT M00/M06 A2999 RMK A01 T10031064  RH  064%=      5-min Rain = 0
KONS 131440Z 23012KT 00/06 A2999 RMK A01 T00000-62  RH  063%=      5-min Rain = 0
KONS 131445Z 23015KT 00/M06 A2999 RMK A01 T00041062  RH  062%=      5-min Rain = 0
KONS 131450Z 23014KT 01/M06 A2998 RMK A01 T00081061  RH  061%=      5-min Rain = 0
KONS 131455Z 22014KT 01/M06 A2999 RMK A01 T00131058  RH  060%=      5-min Rain = 0
KONS 131500Z 22014G20KT 02/M06 A2999 RMK A01 T00161057  RH  059%=      5-min Rain = 0
KONS 131505Z 22016KT 02/M06 A2999 RMK A01 T00201057  RH  058%=      5-min Rain = 0
KONS 131510Z 23015KT 02/M06 A2999 RMK A01 T00241055  RH  057%=      5-min Rain = 0
KONS 131515Z 23012KT 03/M05 A2999 RMK A01 T00321051  RH  055%=      5-min Rain = 0
KONS 131520Z 23015G20KT 03/M05 A2998 RMK A01 T00331051  RH  054%=      5-min Rain = 0
KONS 131525Z 23013G18KT 04/M05 A2999 RMK A01 T00361049  RH  054%=      5-min Rain = 0
KONS 131530Z 23013KT 04/M05 A2998 RMK A01 T00441046  RH  052%=      5-min Rain = 0
KONS 131535Z 23014G20KT 05/M05 A2998 RMK A01 T00481047  RH  051%=      5-min Rain = 0
KONS 131540Z 23013KT 06/M04 A2998 RMK A01 T00551044  RH  050%=      5-min Rain = 0
KONS 131545Z 22014KT 06/M04 A2998 RMK A01 T00591044  RH  048%=      5-min Rain = 0
KONS 131550Z 22014KT 06/M04 A2998 RMK A01 T00631042  RH  047%=      5-min Rain = 0
KONS 131555Z 23016KT 07/M04 A2997 RMK A01 T00681042  RH  046%=      5-min Rain = 0
KONS 131600Z 23014G19KT 07/M04 A2997 RMK A01 T00731040  RH  045%=      5-min Rain = 0
KONS 131605Z 23016KT 08/M04 A2997 RMK A01 T00771041  RH  044%=      5-min Rain = 0
KONS 131610Z 23016KT 08/M04 A2997 RMK A01 T00811040  RH  043%=      5-min Rain = 0
KONS 131615Z 23016KT 09/M04 A2997 RMK A01 T00851040  RH  042%=      5-min Rain = 0
KONS 131620Z 23015KT 09/M04 A2997 RMK A01 T00891038  RH  041%=      5-min Rain = 0
KONS 131625Z 22014KT 10/M04 A2996 RMK A01 T00951037  RH  040%=      5-min Rain = 0
KONS 131630Z 23016KT 10/M04 A2996 RMK A01 T00971036  RH  039%=      5-min Rain = 0
KONS 131635Z 22015KT 10/M04 A2996 RMK A01 T01011035  RH  039%=      5-min Rain = 0
KONS 131640Z 23014G19KT 11/M03 A2997 RMK A01 T01091033  RH  037%=      5-min Rain = 0
KONS 131645Z 23015KT 11/M03 A2997 RMK A01 T01111034  RH  037%=      5-min Rain = 0
KONS 131650Z 22013G18KT 11/M03 A2997 RMK A01 T01141033  RH  036%=      5-min Rain = 0
KONS 131655Z 23014KT 12/M03 A2997 RMK A01 T01191031  RH  035%=      5-min Rain = 0
KONS 131700Z 24014KT 12/M03 A2997 RMK A01 T01231033  RH  034%=      5-min Rain = 0
KONS 131705Z 24013G18KT 13/M03 A2997 RMK A01 T01251032  RH  034%=      5-min Rain = 0
KONS 131710Z 25014KT 13/M03 A2997 RMK A01 T01261034  RH  033%=      5-min Rain = 0
KONS 131715Z 24014KT 13/M03 A2997 RMK A01 T01301032  RH  033%=      5-min Rain = 0
KONS 131720Z 25013G18KT 13/M04 A2997 RMK A01 T01281036  RH  032%=      5-min Rain = 0
KONS 131725Z 24014G19KT 13/M04 A2996 RMK A01 T01301037  RH  031%=      5-min Rain = 0
KONS 131730Z 25012G18KT 14/M04 A2996 RMK A01 T01361036  RH  031%=      5-min Rain = 0
KONS 131735Z 24014KT 14/M04 A2996 RMK A01 T01381038  RH  030%=      5-min Rain = 0
KONS 131740Z 24014KT 14/M04 A2996 RMK A01 T01431038  RH  029%=      5-min Rain = 0
KONS 131745Z 24017KT 15/M04 A2995 RMK A01 T01461043  RH  027%=      5-min Rain = 0
KONS 131750Z 26015G20KT 15/M05 A2995 RMK A01 T01451046  RH  027%=      5-min Rain = 0
KONS 131755Z 25015KT 15/M04 A2995 RMK A01 T01481044  RH  027%=      5-min Rain = 0
KONS 131800Z 25013KT 15/M04 A2995 RMK A01 T01511042  RH  026%=      5-min Rain = 0
KONS 131805Z 25013KT 15/M04 A2995 RMK A01 T01521042  RH  026%=      5-min Rain = 0
KONS 131810Z 24012KT 16/M04 A2995 RMK A01 T01561040  RH  026%=      5-min Rain = 0
KONS 131815Z 24013KT 16/M04 A2994 RMK A01 T01561042  RH  026%=      5-min Rain = 0
KONS 131820Z 24012G17KT 16/M04 A2994 RMK A01 T01571040  RH  026%=      5-min Rain = 0
KONS 131825Z 24012KT 16/M04 A2993 RMK A01 T01611040  RH  025%=      5-min Rain = 0
KONS 131830Z 25011KT 16/M04 A2993 RMK A01 T01641042  RH  024%=      5-min Rain = 0
KONS 131835Z 25011G16KT 17/M04 A2993 RMK A01 T01711042  RH  023%=      5-min Rain = 0
KONS 131840Z 24013G18KT 17/M05 A2992 RMK A01 T01711045  RH  023%=      5-min Rain = 0
KONS 131845Z 24011KT 17/M04 A2992 RMK A01 T01741043  RH  023%=      5-min Rain = 0
KONS 131850Z 26011G16KT 18/M05 A2992 RMK A01 T01751048  RH  022%=      5-min Rain = 0
KONS 131855Z 26010G16KT 18/M05 A2992 RMK A01 T01781047  RH  021%=      5-min Rain = 0
KONS 131900Z 24012KT 18/M05 A2991 RMK A01 T01821047  RH  021%=      5-min Rain = 0
KONS 131905Z 25010G15KT 18/M05 A2991 RMK A01 T01811049  RH  021%=      5-min Rain = 0
KONS 131910Z 24013KT 18/M05 A299 RMK A01 T01841053  RH  020%=      5-min Rain = 0
KONS 131915Z 25012KT 19/M06 A299 RMK A01 T01881056  RH  019%=      5-min Rain = 0
KONS 131920Z 26012KT 19/M06 A299 RMK A01 T01891061  RH  018%=      5-min Rain = 0
KONS 131925Z 26012KT 19/M06 A299 RMK A01 T01891063  RH  018%=      5-min Rain = 0
KONS 131930Z 26013G18KT 19/M06 A299 RMK A01 T01871063  RH  018%=      5-min Rain = 0
KONS 131935Z 25011G16KT 19/M06 A2989 RMK A01 T01891060  RH  018%=      5-min Rain = 0
KONS 131940Z 24011G16KT 19/M06 A2989 RMK A01 T01901060  RH  018%=      5-min Rain = 0
KONS 131945Z 25010KT 19/M06 A2989 RMK A01 T01901058  RH  018%=      5-min Rain = 0
KONS 131950Z 24010KT 19/M06 A2989 RMK A01 T01931055  RH  018%=      5-min Rain = 0
KONS 131955Z 25009G14KT 19/M05 A2989 RMK A01 T01941053  RH  018%=      5-min Rain = 0
KONS 132000Z 25011KT 19/M06 A2989 RMK A01 T01931059  RH  018%=      5-min Rain = 0
KONS 132005Z 26008G13KT 19/M06 A2989 RMK A01 T01921057  RH  018%=      5-min Rain = 0
KONS 132010Z 26010KT 19/M06 A2989 RMK A01 T01931061  RH  018%=      5-min Rain = 0
KONS 132015Z 25008KT 19/M06 A2989 RMK A01 T01921058  RH  018%=      5-min Rain = 0
KONS 132020Z 25009KT 19/M06 A2989 RMK A01 T01931058  RH  018%=      5-min Rain = 0
KONS 132025Z 26007KT 19/M06 A2989 RMK A01 T01921061  RH  018%=      5-min Rain = 0
KONS 132030Z 24006KT 20/M06 A2989 RMK A01 T01951060  RH  017%=      5-min Rain = 0
KONS 132035Z 25005KT 20/M06 A2989 RMK A01 T01971058  RH  018%=      5-min Rain = 0
KONS 132040Z 25004KT 20/M05 A2989 RMK A01 T01991054  RH  018%=      5-min Rain = 0
KONS 132045Z 23004KT 20/M05 A2989 RMK A01 T01971054  RH  018%=      5-min Rain = 0
KONS 132050Z 24005KT 20/M05 A2989 RMK A01 T02011050  RH  018%=      5-min Rain = 0
KONS 132055Z 25005KT 20/M05 A2989 RMK A01 T01981051  RH  018%=      5-min Rain = 0
KONS 132100Z 33005KT 20/M06 A2989 RMK A01 T02011057  RH  017%=      5-min Rain = 0
KONS 132105Z 31007KT 20/M06 A2989 RMK A01 T02001063  RH  017%=      5-min Rain = 0
KONS 132110Z 33006KT 20/M07 A2989 RMK A01 T01991071  RH  016%=      5-min Rain = 0
KONS 132115Z 34005KT 20/M07 A2989 RMK A01 T01971072  RH  016%=      5-min Rain = 0
KONS 132120Z 35006KT 20/M07 A2989 RMK A01 T02001070  RH  016%=      5-min Rain = 0
KONS 132125Z 35005KT 20/M07 A2989 RMK A01 T01991069  RH  016%=      5-min Rain = 0
KONS 132130Z 00006KT 20/M07 A2989 RMK A01 T01991070  RH  016%=      5-min Rain = 0
KONS 132135Z 01006KT 20/M07 A2989 RMK A01 T01981067  RH  016%=      5-min Rain = 0
KONS 132140Z 02004KT 20/M07 A2989 RMK A01 T01961068  RH  016%=      5-min Rain = 0
KONS 132145Z 01003KT 20/M07 A299 RMK A01 T01951066  RH  017%=      5-min Rain = 0
KONS 132150Z 01005KT 20/M07 A299 RMK A01 T01971067  RH  016%=      5-min Rain = 0
KONS 132155Z 03005KT 20/M07 A299 RMK A01 T01951068  RH  016%=      5-min Rain = 0
KONS 132200Z 04003KT 19/M07 A299 RMK A01 T01941069  RH  016%=      5-min Rain = 0
KONS 132205Z 04004KT 20/M07 A299 RMK A01 T01951069  RH  016%=      5-min Rain = 0
KONS 132210Z 06003KT 20/M07 A299 RMK A01 T01951070  RH  016%=      5-min Rain = 0
KONS 132215Z 03003KT 20/M07 A299 RMK A01 T01951068  RH  016%=      5-min Rain = 0
KONS 132220Z 06003KT 20/M07 A299 RMK A01 T01951070  RH  016%=      5-min Rain = 0
KONS 132225Z 06005KT 19/M07 A299 RMK A01 T01941069  RH  016%=      5-min Rain = 0
KONS 132230Z 08005KT 19/M07 A299 RMK A01 T01931070  RH  016%=      5-min Rain = 0
KONS 132235Z 07005KT 19/M07 A299 RMK A01 T01921067  RH  017%=      5-min Rain = 0
KONS 132240Z 07005KT 19/M07 A299 RMK A01 T01911068  RH  017%=      5-min Rain = 0
KONS 132245Z 06005KT 19/M07 A299 RMK A01 T01891067  RH  017%=      5-min Rain = 0
KONS 132250Z 07005KT 19/M06 A299 RMK A01 T01871064  RH  018%=      5-min Rain = 0
KONS 132255Z 06004KT 19/M06 A2991 RMK A01 T01851062  RH  018%=      5-min Rain = 0
KONS 132300Z 06005KT 18/M06 A2991 RMK A01 T01821061  RH  019%=      5-min Rain = 0
KONS 132305Z 06007KT 18/M06 A2991 RMK A01 T01761060  RH  020%=      5-min Rain = 0
KONS 132310Z 06006KT 17/M06 A2991 RMK A01 T01701060  RH  020%=      5-min Rain = 0
KONS 132315Z 06007KT 16/M06 A2991 RMK A01 T01641060  RH  021%=      5-min Rain = 0
KONS 132320Z 06007KT 16/M06 A2992 RMK A01 T01571061  RH  022%=      5-min Rain = 0
KONS 132325Z 06007KT 15/M06 A2992 RMK A01 T01501061  RH  023%=      5-min Rain = 0
KONS 132330Z 12006KT 14/M04 A2992 RMK A01 T01441037  RH  029%=      5-min Rain = 0
KONS 132335Z 14007KT 14/M02 A2992 RMK A01 T01391019  RH  034%=      5-min Rain = 0
KONS 132340Z 15008KT 13/M01 A2993 RMK A01 T01321010  RH  038%=      5-min Rain = 0
KONS 132345Z 15006KT 13/M01 A2993 RMK A01 T01281008  RH  040%=      5-min Rain = 0
KONS 132350Z 14004KT 13/M01 A2994 RMK A01 T01261006  RH  040%=      5-min Rain = 0
KONS 132355Z 13005KT 12/M01 A2994 RMK A01 T01191009  RH  042%=      5-min Rain = 0
KONS 140000Z 13006KT 11/M01 A2994 RMK A01 T01111012  RH  043%=      5-min Rain = 0
KONS 140005Z 15005KT 10/M02 A2995 RMK A01 T00991017  RH  045%=      5-min Rain = 0
KONS 140010Z 06004KT 09/M02 A2995 RMK A01 T00871018  RH  048%=      5-min Rain = 0
KONS 140015Z 12004KT 10/M01 A2996 RMK A01 T00951010  RH  048%=      5-min Rain = 0
KONS 140020Z 04003KT 11/M01 A2996 RMK A01 T01101006  RH  045%=      5-min Rain = 0
KONS 140025Z 03005KT 12/M01 A2996 RMK A01 T01161009  RH  042%=      5-min Rain = 0
KONS 140030Z 05006KT 12/M01 A2996 RMK A01 T01151014  RH  041%=      5-min Rain = 0
KONS 140035Z 05010KT 12/M03 A2997 RMK A01 T01231030  RH  035%=      5-min Rain = 0
KONS 140040Z 05008KT 13/M04 A2997 RMK A01 T01281036  RH  032%=      5-min Rain = 0
KONS 140045Z 04009KT 12/M04 A2997 RMK A01 T01221035  RH  033%=      5-min Rain = 0
KONS 140050Z 04008KT 12/M04 A2997 RMK A01 T01171037  RH  034%=      5-min Rain = 0
KONS 140055Z 04008KT 11/M04 A2997 RMK A01 T01091042  RH  035%=      5-min Rain = 0
KONS 140100Z 03008KT 10/M05 A2998 RMK A01 T01021045  RH  036%=      5-min Rain = 0
KONS 140105Z 03009KT 10/M05 A2998 RMK A01 T00961049  RH  036%=      5-min Rain = 0
KONS 140110Z 03009KT 09/M05 A2998 RMK A01 T00911052  RH  036%=      5-min Rain = 0
KONS 140115Z 06007KT 08/M05 A2999 RMK A01 T00821054  RH  038%=      5-min Rain = 0
KONS 140120Z 04008KT 08/M06 A2999 RMK A01 T00751055  RH  040%=      5-min Rain = 0
KONS 140125Z 03009KT 08/M06 A2999 RMK A01 T00781055  RH  039%=      5-min Rain = 0
KONS 140130Z 04009KT 08/M06 A2999 RMK A01 T00771056  RH  039%=      5-min Rain = 0
KONS 140135Z 04009KT 07/M06 A2999 RMK A01 T00741057  RH  039%=      5-min Rain = 0
KONS 140140Z 04010KT 07/M06 A2999 RMK A01 T00731057  RH  039%=      5-min Rain = 0
KONS 140145Z 04010KT 08/M06 A30 RMK A01 T00771058  RH  038%=      5-min Rain = 0
KONS 140150Z 04009KT 08/M06 A30 RMK A01 T00751059  RH  039%=      5-min Rain = 0
KONS 140155Z 04009KT 07/M06 A30 RMK A01 T00721059  RH  039%=      5-min Rain = 0
KONS 140200Z 04009KT 07/M06 A3001 RMK A01 T00691060  RH  040%=      5-min Rain = 0
KONS 140205Z 04009KT 07/M06 A3001 RMK A01 T00661059  RH  041%=      5-min Rain = 0
KONS 140210Z 04009KT 07/M06 A3001 RMK A01 T00671058  RH  041%=      5-min Rain = 0
KONS 140215Z 04009KT 07/M06 A3002 RMK A01 T00661057  RH  042%=      5-min Rain = 0
KONS 140220Z 04008KT 06/M06 A3002 RMK A01 T00621058  RH  043%=      5-min Rain = 0
KONS 140225Z 04007KT 05/M06 A3002 RMK A01 T00541058  RH  045%=      5-min Rain = 0
KONS 140230Z 03008KT 04/M06 A3002 RMK A01 T00441059  RH  048%=      5-min Rain = 0
KONS 140235Z 04007KT 04/M06 A3002 RMK A01 T00431061  RH  047%=      5-min Rain = 0
KONS 140240Z 05007KT 04/M06 A3003 RMK A01 T00421062  RH  047%=      5-min Rain = 0
KONS 140245Z 05008KT 04/M06 A3003 RMK A01 T00431063  RH  046%=      5-min Rain = 0
KONS 140250Z 05007KT 04/M06 A3003 RMK A01 T00361063  RH  049%=      5-min Rain = 0
KONS 140255Z 04007KT 03/M06 A3004 RMK A01 T00331062  RH  050%=      5-min Rain = 0
KONS 140300Z 03007KT 03/M06 A3004 RMK A01 T00301062  RH  051%=      5-min Rain = 0
KONS 140305Z 02007KT 03/M06 A3004 RMK A01 T00301061  RH  052%=      5-min Rain = 0
KONS 140310Z 02007KT 03/M06 A3005 RMK A01 T00341062  RH  050%=      5-min Rain = 0
KONS 140315Z 03007KT 04/M06 A3005 RMK A01 T00371062  RH  049%=      5-min Rain = 0
KONS 140320Z 02007KT 04/M06 A3005 RMK A01 T00361063  RH  049%=      5-min Rain = 0
KONS 140325Z 01008KT 03/M06 A3006 RMK A01 T00331063  RH  050%=      5-min Rain = 0
KONS 140330Z 01008KT 03/M06 A3006 RMK A01 T00291062  RH  052%=      5-min Rain = 0
KONS 140335Z 01008KT 03/M06 A3006 RMK A01 T00291060  RH  052%=      5-min Rain = 0
KONS 140340Z 01008KT 03/M06 A3006 RMK A01 T00291060  RH  053%=      5-min Rain = 0
KONS 140345Z 01008KT 03/M06 A3007 RMK A01 T00271060  RH  053%=      5-min Rain = 0
KONS 140350Z 02007KT 02/M06 A3007 RMK A01 T00231060  RH  055%=      5-min Rain = 0
KONS 140355Z 01008KT 02/M06 A3007 RMK A01 T00191060  RH  056%=      5-min Rain = 0
KONS 140400Z 01007KT 02/M06 A3007 RMK A01 T00171060  RH  057%=      5-min Rain = 0
KONS 140405Z 01007KT 02/M06 A3008 RMK A01 T00181059  RH  057%=      5-min Rain = 0
KONS 140410Z 01008KT 02/M06 A3008 RMK A01 T00191058  RH  057%=      5-min Rain = 0
KONS 140415Z 01008KT 02/M06 A3008 RMK A01 T00211056  RH  057%=      5-min Rain = 0
KONS 140420Z 01008KT 02/M06 A3008 RMK A01 T00221055  RH  058%=      5-min Rain = 0
KONS 140425Z 01008KT 02/M05 A3008 RMK A01 T00211053  RH  059%=      5-min Rain = 0
KONS 140430Z 01007KT 02/M05 A3008 RMK A01 T00211050  RH  060%=      5-min Rain = 0
KONS 140435Z 00008KT 02/M05 A3009 RMK A01 T00231047  RH  061%=      5-min Rain = 0
KONS 140440Z 00008KT 03/M05 A3009 RMK A01 T00251045  RH  060%=      5-min Rain = 0
KONS 140445Z 36009KT 03/M04 A3009 RMK A01 T00261043  RH  061%=      5-min Rain = 0
KONS 140450Z 00009KT 03/M04 A3009 RMK A01 T00281041  RH  061%=      5-min Rain = 0
KONS 140455Z 00010KT 03/M04 A301 RMK A01 T00291041  RH  061%=      5-min Rain = 0
KONS 140500Z 00010KT 03/M04 A301 RMK A01 T00301039  RH  061%=      5-min Rain = 0
KONS 140505Z 00010KT 03/M04 A301 RMK A01 T00301037  RH  062%=      5-min Rain = 0
KONS 140510Z 00009KT 03/M04 A301 RMK A01 T00301035  RH  063%=      5-min Rain = 0
KONS 140515Z 01009KT 03/M03 A301 RMK A01 T00301034  RH  064%=      5-min Rain = 0
KONS 140520Z 01009KT 03/M03 A301 RMK A01 T00261034  RH  065%=      5-min Rain = 0
KONS 140525Z 01009KT 03/M03 A3011 RMK A01 T00251033  RH  066%=      5-min Rain = 0
KONS 140530Z 01009KT 02/M03 A3011 RMK A01 T00241032  RH  067%=      5-min Rain = 0
KONS 140535Z 01009KT 02/M03 A3011 RMK A01 T00241032  RH  067%=      5-min Rain = 0
KONS 140540Z 01009KT 02/M03 A3011 RMK A01 T00241031  RH  068%=      5-min Rain = 0
KONS 140545Z 00009KT 02/M03 A3011 RMK A01 T00231031  RH  068%=      5-min Rain = 0
KONS 140550Z 00009KT 02/M03 A3011 RMK A01 T00241030  RH  068%=      5-min Rain = 0
KONS 140555Z 00009KT 03/M03 A3012 RMK A01 T00251030  RH  068%=      5-min Rain = 0

Page generated in 0.0242 seconds.